createdAt,value
2019-05-02T00:01:21.555Z,9.20
2019-05-02T00:04:25.902Z,9.20
2019-05-02T00:07:30.338Z,9.20
2019-05-02T00:10:35.952Z,9.50
2019-05-02T00:13:40.186Z,9.50
2019-05-02T00:16:45.086Z,9.50
2019-05-02T00:19:51.287Z,9.40
2019-05-02T00:22:55.815Z,9.50
2019-05-02T00:26:00.225Z,9.50
2019-05-02T00:29:04.577Z,9.40
2019-05-02T00:32:08.940Z,9.40
2019-05-02T00:35:13.642Z,9.40
2019-05-02T00:38:17.905Z,9.30
2019-05-02T00:41:22.194Z,9.20
2019-05-02T00:44:26.441Z,9.40
2019-05-02T00:47:47.917Z,9.20
2019-05-02T00:50:52.534Z,9.30
2019-05-02T00:53:56.901Z,9.20
2019-05-02T00:57:01.110Z,9.20
2019-05-02T01:00:06.428Z,8.90
2019-05-02T01:03:11.076Z,8.40
2019-05-02T01:06:17.100Z,8.80
2019-05-02T01:09:21.402Z,8.70
2019-05-02T01:12:26.811Z,8.70
2019-05-02T01:15:31.433Z,8.60
2019-05-02T01:18:37.107Z,8.30
2019-05-02T01:21:41.791Z,8.20
2019-05-02T01:24:46.109Z,8.50
2019-05-02T01:28:12.634Z,8.80
2019-05-02T01:31:21.266Z,8.80
2019-05-02T01:34:49.092Z,8.70
2019-05-02T01:38:14.557Z,8.70
2019-05-02T01:41:18.878Z,8.80
2019-05-02T01:44:23.202Z,8.80
2019-05-02T01:47:29.157Z,8.70
2019-05-02T01:50:34.695Z,8.70
2019-05-02T01:53:39.123Z,8.80
2019-05-02T01:56:43.430Z,8.80
2019-05-02T01:59:47.802Z,8.80
2019-05-02T02:02:52.151Z,8.70
2019-05-02T02:05:56.421Z,8.80
2019-05-02T02:09:03.407Z,8.70
2019-05-02T02:12:09.853Z,8.70
2019-05-02T02:15:12.745Z,8.70
2019-05-02T02:18:22.266Z,8.70
2019-05-02T02:21:46.096Z,8.70
2019-05-02T02:25:09.332Z,8.60
2019-05-02T02:28:13.687Z,8.70
2019-05-02T02:31:20.377Z,8.50
2019-05-02T02:34:29.408Z,8.70
2019-05-02T02:37:30.632Z,8.80
2019-05-02T02:40:35.718Z,8.70
2019-05-02T02:43:40.200Z,8.60
2019-05-02T02:46:45.773Z,8.60
2019-05-02T02:49:55.859Z,8.50
2019-05-02T02:52:56.137Z,8.50
2019-05-02T02:56:03.774Z,8.70
2019-05-02T02:59:07.747Z,8.60
2019-05-02T03:02:12.345Z,8.60
2019-05-02T03:05:18.968Z,8.50
2019-05-02T03:08:23.029Z,8.60
2019-05-02T03:11:29.945Z,8.60
2019-05-02T03:14:41.006Z,8.70
2019-05-02T03:17:42.074Z,8.70
2019-05-02T03:20:46.358Z,8.80
2019-05-02T03:24:01.442Z,8.90
2019-05-02T03:26:58.401Z,8.90
2019-05-02T03:30:02.782Z,8.90
2019-05-02T03:33:11.614Z,8.90
2019-05-02T03:36:27.957Z,9.00
2019-05-02T03:39:19.163Z,9.10
2019-05-02T03:42:23.485Z,9.20
2019-05-02T03:45:32.341Z,9.10
2019-05-02T03:48:34.039Z,9.10
2019-05-02T03:51:38.224Z,9.20
2019-05-02T03:54:50.155Z,9.30
2019-05-02T03:57:48.546Z,9.30
2019-05-02T04:01:00.359Z,9.10
2019-05-02T04:03:58.785Z,9.10
2019-05-02T04:07:04.072Z,9.10
2019-05-02T04:10:13.381Z,9.20
2019-05-02T04:13:15.246Z,9.30
2019-05-02T04:16:20.494Z,9.30
2019-05-02T04:19:28.683Z,9.10
2019-05-02T04:22:31.906Z,9.00
2019-05-02T04:25:36.743Z,8.80
2019-05-02T04:28:45.451Z,8.80
2019-05-02T04:31:46.960Z,8.60
2019-05-02T04:34:55.786Z,8.50
2019-05-02T04:37:59.092Z,8.40
2019-05-02T04:41:03.178Z,8.70
2019-05-02T04:44:09.130Z,8.60
2019-05-02T04:47:17.436Z,8.80
2019-05-02T04:50:25.027Z,8.90
2019-05-02T04:53:36.664Z,8.90
2019-05-02T04:56:32.260Z,8.90
2019-05-02T04:59:39.223Z,9.20
2019-05-02T05:02:42.485Z,9.40
2019-05-02T05:05:48.255Z,9.40
2019-05-02T05:08:52.712Z,9.40
2019-05-02T05:11:58.953Z,9.50
2019-05-02T05:15:07.869Z,9.60
2019-05-02T05:18:14.403Z,9.50
2019-05-02T05:21:18.113Z,9.30
2019-05-02T05:24:38.555Z,9.30
2019-05-02T05:27:41.316Z,9.40
2019-05-02T05:31:04.726Z,9.40
2019-05-02T05:34:09.889Z,9.50
2019-05-02T05:37:14.469Z,9.50
2019-05-02T05:40:22.582Z,9.60
2019-05-02T05:43:24.896Z,9.70
2019-05-02T05:46:33.378Z,9.70
2019-05-02T05:49:37.434Z,9.60
2019-05-02T05:52:42.534Z,9.70
2019-05-02T05:55:47.442Z,9.70
2019-05-02T05:58:52.599Z,9.70
2019-05-02T06:01:57.920Z,9.50
2019-05-02T06:05:03.909Z,9.40
2019-05-02T06:08:09.486Z,9.40
2019-05-02T06:11:14.966Z,9.40
2019-05-02T06:14:24.955Z,9.50
2019-05-02T06:17:28.663Z,9.50
2019-05-02T06:20:33.433Z,9.60
2019-05-02T06:23:41.260Z,9.90
2019-05-02T06:26:44.801Z,10.00
2019-05-02T06:29:51.130Z,10.20
2019-05-02T06:32:57.007Z,10.30
2019-05-02T06:36:03.015Z,10.40
2019-05-02T06:39:08.548Z,10.50
2019-05-02T06:42:13.359Z,10.50
2019-05-02T06:45:18.800Z,10.50
2019-05-02T06:48:23.334Z,10.70
2019-05-02T06:51:28.230Z,10.80
2019-05-02T06:54:34.239Z,10.80
2019-05-02T06:57:38.704Z,10.70
2019-05-02T07:00:56.371Z,10.70
2019-05-02T07:03:55.474Z,10.80
2019-05-02T07:07:00.364Z,10.70
2019-05-02T07:10:07.329Z,10.70
2019-05-02T07:13:15.115Z,10.50
2019-05-02T07:16:38.797Z,10.60
2019-05-02T07:19:48.815Z,10.80
2019-05-02T07:22:55.082Z,11.00
2019-05-02T07:26:00.321Z,10.80
2019-05-02T07:29:05.799Z,10.80
2019-05-02T07:32:10.855Z,10.70
2019-05-02T07:35:19.223Z,10.90
2019-05-02T07:38:25.562Z,11.00
2019-05-02T07:41:28.928Z,11.10
2019-05-02T07:44:34.501Z,11.40
2019-05-02T07:47:40.371Z,11.40
2019-05-02T07:50:46.462Z,11.50
2019-05-02T07:53:55.245Z,11.40
2019-05-02T07:56:58.630Z,11.50
2019-05-02T08:00:03.394Z,11.70
2019-05-02T08:03:09.848Z,11.70
2019-05-02T08:06:14.308Z,11.60
2019-05-02T08:09:21.787Z,11.80
2019-05-02T08:12:26.319Z,12.00
2019-05-02T08:15:32.357Z,12.00
2019-05-02T08:18:36.944Z,12.20
2019-05-02T08:21:43.451Z,12.40
2019-05-02T08:24:49.075Z,12.50
2019-05-02T08:27:58.855Z,12.70
2019-05-02T08:31:03.769Z,12.90
2019-05-02T08:34:14.680Z,13.10
2019-05-02T08:37:16.071Z,13.00
2019-05-02T08:40:20.792Z,12.80
2019-05-02T08:43:25.280Z,12.90
2019-05-02T08:46:30.170Z,13.00
2019-05-02T08:49:34.606Z,12.90
2019-05-02T08:52:42.762Z,12.90
2019-05-02T08:55:48.241Z,13.10
2019-05-02T08:58:53.456Z,13.30
2019-05-02T09:01:57.900Z,13.30
2019-05-02T09:05:04.599Z,13.30
2019-05-02T09:08:09.350Z,13.20
2019-05-02T09:11:15.889Z,13.20
2019-05-02T09:14:21.665Z,13.40
2019-05-02T09:17:36.016Z,13.40
2019-05-02T09:20:33.423Z,13.40
2019-05-02T09:23:41.118Z,13.60
2019-05-02T09:26:44.799Z,13.80
2019-05-02T09:29:51.828Z,13.90
2019-05-02T09:32:57.231Z,14.00
2019-05-02T09:36:04.042Z,14.20
2019-05-02T09:39:11.856Z,14.30
2019-05-02T09:42:19.086Z,14.40
2019-05-02T09:45:35.489Z,14.50
2019-05-02T09:48:34.723Z,14.60
2019-05-02T09:51:39.263Z,14.60
2019-05-02T09:54:46.086Z,14.70
2019-05-02T09:57:51.904Z,14.80
2019-05-02T10:01:27.861Z,14.80
2019-05-02T10:04:32.658Z,14.90
2019-05-02T10:07:37.133Z,15.00
2019-05-02T10:10:45.863Z,15.00
2019-05-02T10:13:48.356Z,14.90
2019-05-02T10:16:53.156Z,14.90
2019-05-02T10:19:58.308Z,14.90
2019-05-02T10:23:03.161Z,14.90
2019-05-02T10:26:07.883Z,14.80
2019-05-02T10:29:12.991Z,14.80
2019-05-02T10:32:17.503Z,14.80
2019-05-02T10:35:28.084Z,14.90
2019-05-02T10:38:32.618Z,14.90
2019-05-02T10:41:39.649Z,14.90
2019-05-02T10:44:43.814Z,14.90
2019-05-02T10:47:48.297Z,15.00
2019-05-02T10:50:53.900Z,15.10
2019-05-02T10:53:58.566Z,15.10
2019-05-02T10:57:03.975Z,15.00
2019-05-02T11:00:12.110Z,15.00
2019-05-02T11:03:26.399Z,14.90
2019-05-02T11:06:32.440Z,14.80
2019-05-02T11:09:37.106Z,14.90
2019-05-02T11:12:50.082Z,14.70
2019-05-02T11:16:19.318Z,14.60
2019-05-02T11:19:52.632Z,14.60
2019-05-02T11:22:57.255Z,14.40
2019-05-02T11:26:01.824Z,14.40
2019-05-02T11:29:07.158Z,14.30
2019-05-02T11:32:12.810Z,14.20
2019-05-02T11:35:33.059Z,14.10
2019-05-02T11:39:13.371Z,14.10
2019-05-02T11:42:05.381Z,14.10
2019-05-02T11:45:12.077Z,14.10
2019-05-02T11:48:19.788Z,14.10
2019-05-02T11:51:23.976Z,14.10
2019-05-02T11:54:28.539Z,14.00
2019-05-02T11:57:33.580Z,14.00
2019-05-02T12:00:45.354Z,13.70
2019-05-02T12:03:52.439Z,13.50
2019-05-02T12:07:01.154Z,13.70
2019-05-02T12:10:04.694Z,13.70
2019-05-02T12:13:15.763Z,13.70
2019-05-02T12:16:17.768Z,13.90
2019-05-02T12:19:22.934Z,14.00
2019-05-02T12:22:27.513Z,14.20
2019-05-02T12:25:32.834Z,14.30
2019-05-02T12:28:38.120Z,14.50
2019-05-02T12:31:42.831Z,14.70
2019-05-02T12:34:49.385Z,14.80
2019-05-02T12:37:55.342Z,14.80
2019-05-02T12:40:59.891Z,14.90
2019-05-02T12:44:05.365Z,14.90
2019-05-02T12:47:11.761Z,14.80
2019-05-02T12:50:16.464Z,14.70
2019-05-02T12:53:21.973Z,14.60
2019-05-02T12:56:26.803Z,14.50
2019-05-02T12:59:32.192Z,14.40
2019-05-02T13:02:55.760Z,14.30
2019-05-02T13:06:00.343Z,14.20
2019-05-02T13:09:12.846Z,14.20
2019-05-02T13:12:23.313Z,13.90
2019-05-02T13:15:27.994Z,13.80
2019-05-02T13:18:36.929Z,13.40
2019-05-02T13:21:50.282Z,13.10
2019-05-02T13:24:56.330Z,13.10
2019-05-02T13:28:01.971Z,13.00
2019-05-02T13:31:42.724Z,12.80
2019-05-02T13:34:55.495Z,12.70
2019-05-02T13:38:02.738Z,12.70
2019-05-02T13:41:07.506Z,12.60
2019-05-02T13:44:14.078Z,12.70
2019-05-02T13:47:21.840Z,12.90
2019-05-02T13:50:27.667Z,12.90
2019-05-02T13:53:32.787Z,13.00
2019-05-02T13:56:52.365Z,13.00
2019-05-02T13:59:56.322Z,13.00
2019-05-02T14:03:02.886Z,13.00
2019-05-02T14:06:07.491Z,13.00
2019-05-02T14:09:44.023Z,13.10
2019-05-02T14:12:59.970Z,13.10
2019-05-02T14:16:04.704Z,13.10
2019-05-02T14:19:12.474Z,13.00
2019-05-02T14:22:16.662Z,13.10
2019-05-02T14:25:22.304Z,13.00
2019-05-02T14:28:31.206Z,12.90
2019-05-02T14:31:33.224Z,12.80
2019-05-02T14:34:48.515Z,12.70
2019-05-02T14:38:09.854Z,12.90
2019-05-02T14:41:17.212Z,12.90
2019-05-02T14:44:23.294Z,12.80
2019-05-02T14:47:28.047Z,12.80
2019-05-02T14:50:36.550Z,12.90
2019-05-02T14:53:38.949Z,12.90
2019-05-02T14:56:58.832Z,12.90
2019-05-02T15:00:03.810Z,13.00
2019-05-02T15:03:08.382Z,12.90
2019-05-02T15:06:12.843Z,13.00
2019-05-02T15:09:22.656Z,12.90
2019-05-02T15:12:23.849Z,12.90
2019-05-02T15:15:33.952Z,12.90
2019-05-02T15:18:37.221Z,13.00
2019-05-02T15:21:47.031Z,13.20
2019-05-02T15:24:50.414Z,13.10
2019-05-02T15:27:59.924Z,13.00
2019-05-02T15:31:07.172Z,13.20
2019-05-02T15:34:26.831Z,13.10
2019-05-02T15:37:35.633Z,13.00
2019-05-02T15:40:47.312Z,13.10
2019-05-02T15:43:49.091Z,13.20
2019-05-02T15:46:52.415Z,13.30
2019-05-02T15:49:56.944Z,13.20
2019-05-02T15:53:25.090Z,13.20
2019-05-02T15:57:00.307Z,13.10
2019-05-02T16:00:01.538Z,13.00
2019-05-02T16:03:05.861Z,12.90
2019-05-02T16:06:16.470Z,12.80
2019-05-02T16:09:21.501Z,12.90
2019-05-02T16:12:27.201Z,12.90
2019-05-02T16:15:32.616Z,12.80
2019-05-02T16:18:40.937Z,12.80
2019-05-02T16:21:49.260Z,12.70
2019-05-02T16:24:56.411Z,12.50
2019-05-02T16:28:02.732Z,12.50
2019-05-02T16:31:09.503Z,12.30
2019-05-02T16:34:15.028Z,12.30
2019-05-02T16:37:19.977Z,12.30
2019-05-02T16:40:29.817Z,12.50
2019-05-02T16:44:35.852Z,12.50
2019-05-02T16:47:42.369Z,12.50
2019-05-02T16:50:47.222Z,12.50
2019-05-02T16:54:04.916Z,12.60
2019-05-02T16:57:09.984Z,12.60
2019-05-02T17:04:03.200Z,12.70
2019-05-02T17:07:13.600Z,12.70
2019-05-02T17:10:29.532Z,12.70
2019-05-02T17:13:38.572Z,12.80
2019-05-02T17:17:26.524Z,13.00
2019-05-02T17:20:33.658Z,13.00
2019-05-02T17:23:56.442Z,13.10
2019-05-02T17:31:25.976Z,13.10
2019-05-02T17:34:35.057Z,13.10
2019-05-02T17:37:40.602Z,13.00
2019-05-02T17:41:07.949Z,12.90
2019-05-02T17:44:12.821Z,13.10
2019-05-02T17:47:38.140Z,13.20
2019-05-02T17:51:12.430Z,13.20
2019-05-02T17:54:17.548Z,13.30
2019-05-02T17:57:23.252Z,13.20
2019-05-02T18:00:29.417Z,13.00
2019-05-02T18:03:35.313Z,12.90
2019-05-02T18:06:41.689Z,12.80
2019-05-02T18:09:48.632Z,12.80
2019-05-02T18:12:56.710Z,12.90
2019-05-02T18:15:59.482Z,12.70
2019-05-02T18:19:04.609Z,12.80
2019-05-02T18:22:22.471Z,12.60
2019-05-02T18:25:16.249Z,12.60
2019-05-02T18:28:26.137Z,12.60
2019-05-02T18:31:28.515Z,12.50
2019-05-02T18:34:33.037Z,12.40
2019-05-02T18:41:06.186Z,12.50
2019-05-02T18:44:42.028Z,12.60
2019-05-02T18:47:46.896Z,12.70
2019-05-02T18:50:52.675Z,12.80
2019-05-02T18:53:57.831Z,12.70
2019-05-02T18:57:26.004Z,12.70
2019-05-02T19:00:35.502Z,12.50
2019-05-02T19:03:39.437Z,12.20
2019-05-02T19:06:46.859Z,12.00
2019-05-02T19:09:53.971Z,11.80
2019-05-02T19:13:01.053Z,11.50
2019-05-02T19:16:04.841Z,11.40
2019-05-02T19:19:09.360Z,11.30
2019-05-02T19:22:17.055Z,11.20
2019-05-02T19:25:20.102Z,11.10
2019-05-02T19:28:36.808Z,11.10
2019-05-02T19:31:46.153Z,11.00
2019-05-02T19:34:50.760Z,11.00
2019-05-02T19:37:55.497Z,11.00
2019-05-02T19:41:05.465Z,10.90
2019-05-02T19:44:06.350Z,10.90
2019-05-02T19:47:15.634Z,10.90
2019-05-02T19:50:41.632Z,10.80
2019-05-02T19:53:44.871Z,10.70
2019-05-02T19:56:49.779Z,10.50
2019-05-02T19:59:57.176Z,10.50
2019-05-02T20:03:02.633Z,10.50
2019-05-02T20:06:07.090Z,10.40
2019-05-02T20:09:11.813Z,10.40
2019-05-02T20:12:16.460Z,10.30
2019-05-02T20:15:26.834Z,10.20
2019-05-02T20:18:28.250Z,10.10
2019-05-02T20:22:02.817Z,10.00
2019-05-02T20:25:05.902Z,9.90
2019-05-02T20:28:11.147Z,9.90
2019-05-02T20:31:16.390Z,9.90
2019-05-02T20:34:22.209Z,9.80
2019-05-02T20:37:27.006Z,9.80
2019-05-02T20:40:32.615Z,9.70
2019-05-02T20:43:37.141Z,9.80
2019-05-02T20:46:42.126Z,9.70
2019-05-02T20:49:47.977Z,9.80
2019-05-02T20:52:52.636Z,9.90
2019-05-02T20:55:57.180Z,10.10
2019-05-02T20:59:02.311Z,10.30
2019-05-02T21:02:08.302Z,10.20
2019-05-02T21:05:19.737Z,9.90
2019-05-02T21:08:43.660Z,9.70
2019-05-02T21:11:53.126Z,9.50
2019-05-02T21:14:57.722Z,9.30
2019-05-02T21:18:03.039Z,9.20
2019-05-02T21:21:07.630Z,9.20
2019-05-02T21:24:12.226Z,9.20
2019-05-02T21:27:17.300Z,9.40
2019-05-02T21:30:32.245Z,9.30
2019-05-02T21:33:42.794Z,9.10
2019-05-02T21:36:47.304Z,9.00
2019-05-02T21:39:52.139Z,9.00
2019-05-02T21:42:56.857Z,9.10
2019-05-02T21:46:02.378Z,9.30
2019-05-02T21:49:07.213Z,9.20
2019-05-02T21:52:36.486Z,9.10
2019-05-02T21:55:58.738Z,9.40
2019-05-02T21:59:12.289Z,9.60
2019-05-02T22:02:19.634Z,9.70
2019-05-02T22:05:25.544Z,9.50
2019-05-02T22:08:32.168Z,9.50
2019-05-02T22:11:36.372Z,9.40
2019-05-02T22:14:42.139Z,9.50
2019-05-02T22:18:06.274Z,9.60
2019-05-02T22:21:12.295Z,9.50
2019-05-02T22:24:16.987Z,9.60
2019-05-02T22:27:22.338Z,9.70
2019-05-02T22:30:26.897Z,9.80
2019-05-02T22:33:32.804Z,9.80
2019-05-02T22:36:37.845Z,9.80
2019-05-02T22:39:56.120Z,9.80
2019-05-02T22:43:01.942Z,9.60
2019-05-02T22:46:08.549Z,9.50
2019-05-02T22:49:14.912Z,9.30
2019-05-02T22:52:21.781Z,9.50
2019-05-02T22:55:26.588Z,9.40
2019-05-02T22:58:32.672Z,9.50
2019-05-02T23:01:38.607Z,9.60
2019-05-02T23:04:44.533Z,9.30
2019-05-02T23:07:49.033Z,9.50
2019-05-02T23:10:54.122Z,9.40
2019-05-02T23:13:58.782Z,9.50
2019-05-02T23:17:03.589Z,9.50
2019-05-02T23:20:09.016Z,9.40
2019-05-02T23:23:13.586Z,9.40
2019-05-02T23:26:52.307Z,9.40
2019-05-02T23:29:56.991Z,9.40
2019-05-02T23:33:23.416Z,9.30
2019-05-02T23:36:27.591Z,9.30
2019-05-02T23:39:32.400Z,9.40
2019-05-02T23:42:41.738Z,9.60
2019-05-02T23:45:46.785Z,9.60
2019-05-02T23:48:52.648Z,9.60
2019-05-02T23:51:57.616Z,9.50
2019-05-02T23:55:02.998Z,9.50
2019-05-02T23:58:08.843Z,9.50
